createdAt,value
2019-02-11T00:01:21.007Z,10.83
2019-02-11T00:03:48.883Z,12.70
2019-02-11T00:06:16.697Z,12.83
2019-02-11T00:08:44.616Z,15.53
2019-02-11T00:11:12.479Z,9.80
2019-02-11T00:13:40.265Z,9.80
2019-02-11T00:16:08.616Z,8.57
2019-02-11T00:18:36.854Z,6.37
2019-02-11T00:21:04.670Z,16.27
2019-02-11T00:23:32.478Z,7.13
2019-02-11T00:26:00.249Z,6.43
2019-02-11T00:28:28.547Z,8.23
2019-02-11T00:31:00.413Z,12.80
2019-02-11T00:33:28.224Z,9.50
2019-02-11T00:35:56.023Z,18.37
2019-02-11T00:38:23.877Z,10.00
2019-02-11T00:40:51.724Z,15.30
2019-02-11T00:43:19.621Z,9.00
2019-02-11T00:45:48.474Z,9.67
2019-02-11T00:48:16.737Z,6.00
2019-02-11T00:50:44.660Z,11.63
2019-02-11T00:53:12.607Z,12.53
2019-02-11T00:55:40.491Z,10.30
2019-02-11T00:58:08.681Z,9.27
2019-02-11T01:00:37.502Z,8.07
2019-02-11T01:03:05.676Z,6.27
2019-02-11T01:05:33.542Z,13.63
2019-02-11T01:08:01.328Z,12.97
2019-02-11T01:10:29.298Z,6.33
2019-02-11T01:12:57.171Z,11.33
2019-02-11T01:15:25.055Z,13.83
2019-02-11T01:17:52.931Z,13.43
2019-02-11T01:20:20.922Z,12.87
2019-02-11T01:22:48.764Z,7.00
2019-02-11T01:25:16.584Z,9.00
2019-02-11T01:27:44.859Z,9.37
2019-02-11T01:30:12.777Z,7.97
2019-02-11T01:32:40.613Z,12.73
2019-02-11T01:35:08.444Z,16.57
2019-02-11T01:37:36.620Z,17.43
2019-02-11T01:40:05.200Z,12.67
2019-02-11T01:42:33.072Z,6.07
2019-02-11T01:45:00.920Z,15.53
2019-02-11T01:47:28.760Z,12.27
2019-02-11T01:49:56.565Z,12.30
2019-02-11T01:52:24.856Z,14.00
2019-02-11T01:54:52.908Z,12.07
2019-02-11T01:57:20.778Z,13.83
2019-02-11T01:59:49.726Z,13.53
2019-02-11T02:02:17.587Z,21.60
2019-02-11T02:04:45.401Z,8.63
2019-02-11T02:07:13.286Z,12.40
2019-02-11T02:09:41.027Z,17.43
2019-02-11T02:12:08.855Z,6.57
2019-02-11T02:14:36.812Z,18.27
2019-02-11T02:17:04.931Z,10.63
2019-02-11T02:19:32.687Z,6.43
2019-02-11T02:22:00.525Z,24.03
2019-02-11T02:24:28.346Z,18.93
2019-02-11T02:26:56.515Z,11.77
2019-02-11T02:29:24.453Z,16.20
2019-02-11T02:31:53.242Z,7.17
2019-02-11T02:34:21.028Z,22.77
2019-02-11T02:36:48.836Z,15.67
2019-02-11T02:39:16.733Z,28.07
2019-02-11T02:41:44.890Z,5.57
2019-02-11T02:44:12.731Z,19.37
2019-02-11T02:46:40.612Z,22.87
2019-02-11T02:49:08.433Z,11.13
2019-02-11T02:51:36.201Z,18.13
2019-02-11T02:54:04.399Z,12.53
2019-02-11T02:56:32.203Z,17.53
2019-02-11T02:59:00.360Z,12.70
2019-02-11T03:01:28.160Z,18.10
2019-02-11T03:03:55.936Z,16.37
2019-02-11T03:06:23.896Z,15.53
2019-02-11T03:08:52.750Z,15.33
2019-02-11T03:11:20.549Z,9.53
2019-02-11T03:13:48.412Z,16.67
2019-02-11T03:16:16.349Z,16.73
2019-02-11T03:18:44.161Z,16.90
2019-02-11T03:21:12.029Z,14.03
2019-02-11T03:23:39.948Z,25.67
2019-02-11T03:26:08.822Z,12.83
2019-02-11T03:28:37.026Z,17.40
2019-02-11T03:31:04.944Z,28.93
2019-02-11T03:33:32.833Z,13.67
2019-02-11T03:36:01.098Z,19.53
2019-02-11T03:38:29.590Z,16.03
2019-02-11T03:40:57.827Z,15.03
2019-02-11T03:43:25.634Z,8.67
2019-02-11T03:45:53.465Z,9.20
2019-02-11T03:48:21.394Z,9.33
2019-02-11T03:50:49.495Z,11.00
2019-02-11T03:53:17.570Z,9.47
2019-02-11T03:55:45.649Z,11.10
2019-02-11T03:58:14.509Z,5.83
2019-02-11T04:00:42.319Z,10.10
2019-02-11T04:03:10.549Z,7.63
2019-02-11T04:05:38.725Z,7.83
2019-02-11T04:08:06.558Z,7.30
2019-02-11T04:10:34.488Z,11.07
2019-02-11T04:13:03.421Z,13.57
2019-02-11T04:15:31.241Z,10.57
2019-02-11T04:17:59.140Z,4.70
2019-02-11T04:20:26.981Z,4.67
2019-02-11T04:22:54.894Z,11.53
2019-02-11T04:25:22.743Z,15.40
2019-02-11T04:27:50.623Z,5.20
2019-02-11T04:30:18.481Z,6.27
2019-02-11T04:32:47.540Z,7.87
2019-02-11T04:35:15.735Z,5.93
2019-02-11T04:37:43.877Z,12.37
2019-02-11T04:40:11.755Z,11.83
2019-02-11T04:42:39.627Z,7.17
2019-02-11T04:45:08.053Z,9.33
2019-02-11T04:47:36.137Z,10.23
2019-02-11T04:50:08.624Z,8.73
2019-02-11T04:52:38.153Z,12.97
2019-02-11T04:55:06.302Z,9.70
2019-02-11T04:57:34.700Z,13.57
2019-02-11T05:00:02.604Z,7.53
2019-02-11T05:02:30.991Z,8.33
2019-02-11T05:04:58.846Z,6.90
2019-02-11T05:07:27.847Z,8.83
2019-02-11T05:09:55.988Z,7.13
2019-02-11T05:12:26.116Z,6.30
2019-02-11T05:14:54.279Z,6.43
2019-02-11T05:17:22.741Z,7.30
2019-02-11T05:19:51.687Z,11.97
2019-02-11T05:22:25.878Z,9.03
2019-02-11T05:24:56.166Z,10.10
2019-02-11T05:27:24.357Z,6.93
2019-02-11T05:29:52.508Z,6.60
2019-02-11T05:32:20.560Z,13.57
2019-02-11T05:34:48.538Z,4.07
2019-02-11T05:37:16.663Z,7.43
2019-02-11T05:39:45.183Z,7.97
2019-02-11T05:42:13.210Z,9.33
2019-02-11T05:44:41.173Z,6.30
2019-02-11T05:47:09.111Z,11.97
2019-02-11T05:49:36.910Z,9.80
2019-02-11T05:52:05.343Z,11.03
2019-02-11T05:54:33.155Z,11.57
2019-02-11T05:57:00.954Z,13.67
2019-02-11T05:59:29.101Z,18.20
2019-02-11T06:01:56.894Z,14.00
2019-02-11T06:04:24.666Z,16.57
2019-02-11T06:06:52.545Z,10.40
2019-02-11T06:09:20.296Z,17.13
2019-02-11T06:11:48.172Z,9.90
2019-02-11T06:14:15.929Z,14.13
2019-02-11T06:16:43.799Z,11.33
2019-02-11T06:19:11.603Z,12.60
2019-02-11T06:21:39.436Z,14.53
2019-02-11T06:24:07.669Z,14.67
2019-02-11T06:26:36.601Z,12.70
2019-02-11T06:29:04.498Z,14.30
2019-02-11T06:31:32.753Z,20.60
2019-02-11T06:34:00.722Z,15.00
2019-02-11T06:36:28.608Z,19.20
2019-02-11T06:38:57.949Z,20.93
2019-02-11T06:41:25.671Z,24.63
2019-02-11T06:43:56.143Z,24.07
2019-02-11T06:46:24.419Z,18.40
2019-02-11T06:48:52.532Z,16.37
2019-02-11T06:51:20.485Z,25.63
2019-02-11T06:53:48.900Z,29.10
2019-02-11T06:56:16.781Z,44.00
2019-02-11T06:58:44.705Z,36.43
2019-02-11T07:01:12.751Z,27.87
2019-02-11T07:03:40.716Z,28.40
2019-02-11T07:06:08.643Z,32.93
2019-02-11T07:08:37.099Z,45.40
2019-02-11T07:11:05.091Z,28.77
2019-02-11T07:13:32.908Z,39.27
2019-02-11T07:16:01.094Z,20.20
2019-02-11T07:18:28.975Z,35.73
2019-02-11T07:20:57.098Z,66.10
2019-02-11T07:23:25.134Z,29.57
2019-02-11T07:25:53.561Z,37.87
2019-02-11T07:28:21.476Z,46.07
2019-02-11T07:30:49.879Z,23.57
2019-02-11T07:33:18.030Z,35.43
2019-02-11T07:35:45.912Z,45.33
2019-02-11T07:38:13.707Z,44.20
2019-02-11T07:40:44.517Z,39.20
2019-02-11T07:43:31.936Z,42.67
2019-02-11T07:46:04.284Z,36.27
2019-02-11T07:48:33.263Z,66.20
2019-02-11T07:51:01.282Z,47.70
2019-02-11T07:53:29.578Z,47.03
2019-02-11T07:55:57.396Z,35.50
2019-02-11T07:58:25.374Z,46.40
2019-02-11T08:00:54.657Z,37.87
2019-02-11T08:03:22.481Z,44.47
2019-02-11T08:05:50.718Z,43.33
2019-02-11T08:08:18.695Z,38.03
2019-02-11T08:10:46.506Z,40.13
2019-02-11T08:13:14.700Z,45.10
2019-02-11T08:15:42.562Z,38.83
2019-02-11T08:18:10.737Z,29.53
2019-02-11T08:20:38.529Z,28.47
2019-02-11T08:23:12.961Z,16.40
2019-02-11T08:25:36.073Z,21.67
2019-02-11T08:28:03.957Z,17.83
2019-02-11T08:30:31.959Z,12.73
2019-02-11T08:32:59.823Z,8.37
2019-02-11T08:35:29.039Z,18.93
2019-02-11T08:37:56.893Z,9.33
2019-02-11T08:40:26.158Z,13.00
2019-02-11T08:42:54.046Z,14.43
2019-02-11T08:45:22.283Z,8.67
2019-02-11T08:47:51.084Z,15.07
2019-02-11T08:50:18.992Z,10.17
2019-02-11T08:52:46.747Z,12.20
2019-02-11T08:55:14.633Z,12.07
2019-02-11T08:57:43.306Z,9.03
2019-02-11T09:00:12.263Z,7.77
2019-02-11T09:02:40.116Z,10.60
2019-02-11T09:05:10.050Z,11.10
2019-02-11T09:07:38.889Z,7.97
2019-02-11T09:10:07.124Z,11.03
2019-02-11T09:12:36.511Z,8.20
2019-02-11T09:15:06.967Z,7.57
2019-02-11T09:17:40.787Z,8.57
2019-02-11T09:20:16.902Z,7.70
2019-02-11T09:22:47.696Z,12.37
2019-02-11T09:25:17.286Z,7.33
2019-02-11T09:27:47.231Z,16.37
2019-02-11T09:30:16.466Z,9.33
2019-02-11T09:32:45.047Z,7.10
2019-02-11T09:35:13.638Z,5.60
2019-02-11T09:37:41.597Z,9.13
2019-02-11T09:40:10.652Z,6.53
2019-02-11T09:42:38.953Z,8.50
2019-02-11T09:45:08.537Z,11.90
2019-02-11T09:51:30.712Z,12.20
2019-02-11T09:53:59.144Z,7.40
2019-02-11T09:56:27.409Z,6.83
2019-02-11T09:59:09.417Z,6.57
2019-02-11T10:01:58.474Z,11.03
2019-02-11T10:04:27.988Z,6.43
2019-02-11T10:06:56.842Z,4.80
2019-02-11T10:09:26.015Z,7.50
2019-02-11T10:11:54.246Z,7.93
2019-02-11T10:14:22.233Z,8.17
2019-02-11T10:16:51.762Z,6.73
2019-02-11T10:19:20.353Z,8.30
2019-02-11T10:21:50.890Z,4.83
2019-02-11T10:24:20.001Z,7.47
2019-02-11T10:26:49.727Z,10.50
2019-02-11T10:32:48.487Z,5.20
2019-02-11T10:35:16.627Z,7.97
2019-02-11T10:37:45.239Z,4.17
2019-02-11T10:40:14.184Z,5.23
2019-02-11T10:42:43.814Z,7.67
2019-02-11T10:45:12.633Z,8.10
2019-02-11T10:47:41.312Z,4.73
2019-02-11T10:50:09.805Z,12.53
2019-02-11T10:52:37.772Z,10.70
2019-02-11T10:55:06.772Z,3.40
2019-02-11T10:57:34.770Z,7.87
2019-02-11T11:00:03.805Z,4.37
2019-02-11T11:02:31.639Z,3.47
2019-02-11T11:04:59.526Z,4.93
2019-02-11T11:07:27.702Z,5.20
2019-02-11T11:09:55.708Z,4.77
2019-02-11T11:12:24.011Z,7.67
2019-02-11T11:14:52.236Z,7.43
2019-02-11T11:17:20.114Z,3.90
2019-02-11T11:19:50.108Z,9.20
2019-02-11T11:22:17.967Z,2.83
2019-02-11T11:24:45.971Z,9.60
2019-02-11T11:27:14.166Z,4.53
2019-02-11T11:29:42.131Z,5.80
2019-02-11T11:32:10.073Z,6.00
2019-02-11T11:34:38.348Z,8.13
2019-02-11T11:37:08.381Z,7.17
2019-02-11T11:39:36.697Z,9.73
2019-02-11T11:42:04.514Z,4.93
2019-02-11T11:44:32.540Z,3.13
2019-02-11T11:47:00.953Z,6.50
2019-02-11T11:49:28.981Z,6.93
2019-02-11T11:51:56.939Z,7.53
2019-02-11T11:54:24.958Z,3.80
2019-02-11T11:56:52.860Z,3.53
2019-02-11T11:59:21.265Z,6.47
2019-02-11T12:01:49.107Z,6.47
2019-02-11T12:04:17.065Z,6.13
2019-02-11T12:06:45.031Z,5.57
2019-02-11T12:09:12.981Z,6.07
2019-02-11T12:11:40.974Z,4.97
2019-02-11T12:14:14.708Z,5.70
2019-02-11T12:17:08.436Z,4.93
2019-02-11T12:19:41.471Z,7.20
2019-02-11T12:22:13.462Z,9.73
2019-02-11T12:24:42.643Z,8.07
2019-02-11T12:27:16.372Z,7.63
2019-02-11T12:29:49.856Z,3.70
2019-02-11T12:32:55.431Z,3.33
2019-02-11T12:35:24.918Z,4.53
2019-02-11T12:37:54.880Z,3.93
2019-02-11T12:40:27.229Z,4.67
2019-02-11T12:43:19.842Z,1.87
2019-02-11T12:45:48.157Z,5.10
2019-02-11T12:48:16.058Z,6.90
2019-02-11T12:50:45.173Z,7.97
2019-02-11T12:53:13.159Z,10.57
2019-02-11T12:55:43.620Z,5.50
2019-02-11T12:58:11.562Z,5.93
2019-02-11T13:00:40.074Z,7.30
2019-02-11T13:03:08.196Z,8.97
2019-02-11T13:05:45.060Z,4.27
2019-02-11T13:08:05.728Z,8.80
2019-02-11T13:10:33.717Z,8.30
2019-02-11T13:13:01.586Z,6.27
2019-02-11T13:15:56.545Z,7.67
2019-02-11T13:17:59.368Z,6.87
2019-02-11T13:20:28.384Z,10.33
2019-02-11T13:22:56.912Z,9.20
2019-02-11T13:25:24.958Z,9.53
2019-02-11T13:27:52.919Z,5.00
2019-02-11T13:30:20.984Z,7.83
2019-02-11T13:32:49.476Z,11.53
2019-02-11T13:35:17.676Z,5.27
2019-02-11T13:37:45.842Z,8.27
2019-02-11T13:40:14.266Z,6.90
2019-02-11T13:42:42.323Z,7.67
2019-02-11T13:45:12.289Z,4.17
2019-02-11T13:47:53.327Z,9.83
2019-02-11T13:50:11.745Z,5.23
2019-02-11T13:52:40.201Z,5.97
2019-02-11T13:55:08.158Z,6.33
2019-02-11T13:57:36.603Z,6.53
2019-02-11T14:00:08.591Z,5.27
2019-02-11T14:02:39.774Z,10.53
2019-02-11T14:05:07.820Z,6.27
2019-02-11T14:07:36.702Z,7.97
2019-02-11T14:10:05.798Z,5.33
2019-02-11T14:12:34.065Z,4.80
2019-02-11T14:15:04.059Z,5.43
2019-02-11T14:17:32.194Z,9.77
2019-02-11T14:20:01.725Z,8.97
2019-02-11T14:22:29.833Z,10.53
2019-02-11T14:24:57.990Z,8.80
2019-02-11T14:27:25.913Z,5.27
2019-02-11T14:29:53.851Z,7.60
2019-02-11T14:32:21.945Z,8.73
2019-02-11T14:34:49.934Z,7.90
2019-02-11T14:37:18.071Z,7.37
2019-02-11T14:39:46.230Z,11.13
2019-02-11T14:42:15.213Z,5.17
2019-02-11T14:44:43.528Z,10.33
2019-02-11T14:47:11.557Z,6.60
2019-02-11T14:49:39.886Z,7.43
2019-02-11T14:52:07.775Z,3.40
2019-02-11T14:54:35.801Z,4.57
2019-02-11T14:57:03.978Z,11.87
2019-02-11T14:59:31.945Z,7.27
2019-02-11T15:01:59.925Z,8.47
2019-02-11T15:04:27.769Z,8.47
2019-02-11T15:06:55.627Z,14.10
2019-02-11T15:09:24.228Z,14.63
2019-02-11T15:11:52.246Z,12.03
2019-02-11T15:14:20.125Z,5.47
2019-02-11T15:16:47.939Z,6.37
2019-02-11T15:19:15.780Z,10.77
2019-02-11T15:21:44.318Z,8.17
2019-02-11T15:24:14.039Z,11.00
2019-02-11T15:26:42.580Z,7.30
2019-02-11T15:29:11.462Z,8.00
2019-02-11T15:31:39.329Z,8.70
2019-02-11T15:34:07.495Z,11.67
2019-02-11T15:36:35.394Z,9.63
2019-02-11T15:39:04.250Z,9.33
2019-02-11T15:41:32.219Z,4.83
2019-02-11T15:44:00.078Z,10.23
2019-02-11T15:46:27.932Z,9.17
2019-02-11T15:48:55.870Z,11.63
2019-02-11T15:51:24.137Z,9.30
2019-02-11T15:53:52.174Z,9.63
2019-02-11T15:56:20.105Z,9.67
2019-02-11T15:58:48.059Z,8.03
2019-02-11T16:01:15.946Z,8.27
2019-02-11T16:03:44.423Z,10.93
2019-02-11T16:06:12.725Z,2.93
2019-02-11T16:08:40.917Z,9.53
2019-02-11T16:11:09.905Z,8.87
2019-02-11T16:13:37.984Z,12.73
2019-02-11T16:16:06.349Z,13.47
2019-02-11T16:18:34.638Z,11.77
2019-02-11T16:21:04.477Z,10.57
2019-02-11T16:23:33.423Z,15.00
2019-02-11T16:26:01.477Z,11.53
2019-02-11T16:28:29.965Z,15.43
2019-02-11T16:31:00.626Z,8.73
2019-02-11T16:33:30.943Z,10.20
2019-02-11T16:35:59.565Z,7.07
2019-02-11T16:38:28.207Z,12.90
2019-02-11T16:41:02.035Z,11.37
2019-02-11T16:43:33.749Z,7.90
2019-02-11T16:46:05.247Z,9.63
2019-02-11T16:48:34.975Z,15.03
2019-02-11T16:51:04.758Z,12.17
2019-02-11T16:53:34.566Z,10.80
2019-02-11T16:59:40.155Z,11.53
2019-02-11T17:02:08.365Z,12.97
2019-02-11T17:04:37.940Z,10.17
2019-02-11T17:07:06.561Z,19.43
2019-02-11T17:09:35.717Z,21.97
2019-02-11T17:12:13.241Z,17.00
2019-02-11T17:14:45.002Z,12.40
2019-02-11T17:17:16.146Z,22.33
2019-02-11T17:19:47.996Z,10.27
2019-02-11T17:22:16.932Z,19.23
2019-02-11T17:24:45.124Z,17.70
2019-02-11T17:27:13.172Z,17.73
2019-02-11T17:29:45.834Z,19.40
2019-02-11T17:32:16.859Z,20.90
2019-02-11T17:34:45.471Z,17.37
2019-02-11T17:37:17.815Z,31.30
2019-02-11T17:39:48.377Z,30.50
2019-02-11T17:42:17.695Z,17.63
2019-02-11T17:44:49.618Z,26.90
2019-02-11T17:47:26.541Z,30.53
2019-02-11T17:49:57.929Z,25.10
2019-02-11T17:52:27.423Z,22.73
2019-02-11T17:54:59.764Z,27.63
2019-02-11T17:57:31.891Z,31.30
2019-02-11T18:00:08.770Z,20.73
2019-02-11T18:02:38.290Z,27.83
2019-02-11T18:05:08.349Z,27.00
2019-02-11T18:07:42.582Z,26.43
2019-02-11T18:14:16.151Z,23.63
2019-02-11T18:17:00.195Z,24.77
2019-02-11T18:19:29.611Z,25.77
2019-02-11T18:22:05.147Z,22.40
2019-02-11T18:24:35.982Z,38.30
2019-02-11T18:27:09.724Z,26.00
2019-02-11T18:29:39.970Z,33.03
2019-02-11T18:32:09.595Z,33.57
2019-02-11T18:34:38.869Z,44.60
2019-02-11T18:37:26.205Z,34.70
2019-02-11T18:39:54.722Z,47.45
2019-02-11T18:42:26.312Z,40.97
2019-02-11T18:45:00.709Z,43.70
2019-02-11T18:47:29.932Z,47.43
2019-02-11T18:49:58.256Z,36.60
2019-02-11T18:52:28.000Z,39.13
2019-02-11T18:54:59.106Z,42.63
2019-02-11T18:57:29.728Z,41.67
2019-02-11T19:03:01.156Z,37.63
2019-02-11T19:05:53.511Z,33.40
2019-02-11T19:08:31.692Z,34.93
2019-02-11T19:11:06.576Z,37.87
2019-02-11T19:13:40.241Z,44.77
2019-02-11T19:16:10.622Z,52.37
2019-02-11T19:18:39.524Z,52.27
2019-02-11T19:21:08.392Z,37.00
2019-02-11T19:23:40.370Z,43.07
2019-02-11T19:26:23.959Z,46.60
2019-02-11T19:28:58.895Z,35.73
2019-02-11T19:31:27.047Z,44.33
2019-02-11T19:33:55.120Z,43.77
2019-02-11T19:36:24.634Z,53.27
2019-02-11T19:38:52.724Z,40.87
2019-02-11T19:41:22.170Z,42.47
2019-02-11T19:43:50.314Z,36.03
2019-02-11T19:46:18.425Z,49.73
2019-02-11T19:48:46.610Z,41.17
2019-02-11T19:51:14.772Z,53.23
2019-02-11T19:53:42.780Z,36.17
2019-02-11T19:56:11.230Z,46.87
2019-02-11T19:58:39.229Z,42.47
2019-02-11T20:01:07.247Z,46.87
2019-02-11T20:03:35.245Z,39.37
2019-02-11T20:06:03.209Z,45.27
2019-02-11T20:08:31.671Z,43.63
2019-02-11T20:10:59.653Z,37.20
2019-02-11T20:13:27.745Z,45.63
2019-02-11T20:15:55.738Z,43.07
2019-02-11T20:18:24.047Z,47.17
2019-02-11T20:20:52.071Z,43.47
2019-02-11T20:23:20.117Z,44.80
2019-02-11T20:25:48.290Z,44.57
2019-02-11T20:28:16.324Z,47.53
2019-02-11T20:30:44.463Z,48.87
2019-02-11T20:33:12.798Z,47.07
2019-02-11T20:35:40.699Z,49.07
2019-02-11T20:38:08.969Z,44.17
2019-02-11T20:40:36.975Z,50.83
2019-02-11T20:43:05.019Z,50.40
2019-02-11T20:45:34.414Z,53.50
2019-02-11T20:48:03.288Z,56.03
2019-02-11T20:50:31.798Z,54.90
2019-02-11T20:53:01.861Z,62.47
2019-02-11T20:55:30.389Z,57.53
2019-02-11T20:57:58.493Z,62.97
2019-02-11T21:00:27.312Z,50.70
2019-02-11T21:03:18.498Z,66.43
2019-02-11T21:05:57.176Z,125.20
2019-02-11T21:08:25.209Z,113.50
2019-02-11T21:14:05.356Z,115.67
2019-02-11T21:16:33.018Z,85.83
2019-02-11T21:19:00.862Z,84.83
2019-02-11T21:21:28.810Z,63.30
2019-02-11T21:23:56.468Z,71.70
2019-02-11T21:26:24.423Z,61.67
2019-02-11T21:28:52.337Z,71.77
2019-02-11T21:31:19.991Z,53.07
2019-02-11T21:33:47.932Z,62.93
2019-02-11T21:36:15.622Z,52.67
2019-02-11T21:38:43.284Z,69.70
2019-02-11T21:41:10.938Z,54.57
2019-02-11T21:43:38.548Z,59.47
2019-02-11T21:46:07.226Z,73.37
2019-02-11T21:48:34.862Z,64.63
2019-02-11T21:51:02.532Z,60.57
2019-02-11T21:53:30.379Z,85.90
2019-02-11T21:55:58.050Z,66.80
2019-02-11T21:58:25.678Z,60.37
2019-02-11T22:01:01.832Z,61.67
2019-02-11T22:03:22.875Z,71.30
2019-02-11T22:05:50.716Z,58.83
2019-02-11T22:08:18.481Z,67.63
2019-02-11T22:10:46.369Z,85.80
2019-02-11T22:13:14.141Z,83.07
2019-02-11T22:15:41.948Z,77.07
2019-02-11T22:18:09.813Z,89.50
2019-02-11T22:20:37.567Z,86.17
2019-02-11T22:23:05.382Z,88.50
2019-02-11T22:25:33.245Z,70.70
2019-02-11T22:28:01.144Z,89.27
2019-02-11T22:30:28.902Z,89.63
2019-02-11T22:32:57.128Z,80.00
2019-02-11T22:35:25.559Z,75.50
2019-02-11T22:37:53.320Z,65.97
2019-02-11T22:40:21.214Z,82.47
2019-02-11T22:42:48.979Z,78.93
2019-02-11T22:45:17.471Z,79.40
2019-02-11T22:47:45.563Z,76.63
2019-02-11T22:50:14.168Z,81.40
2019-02-11T22:52:41.869Z,80.87
2019-02-11T22:55:09.759Z,95.30
2019-02-11T22:57:37.823Z,97.63
2019-02-11T23:00:10.022Z,90.43
2019-02-11T23:02:39.092Z,97.53
2019-02-11T23:05:07.815Z,89.63
2019-02-11T23:07:35.479Z,107.43
2019-02-11T23:10:03.684Z,110.13
2019-02-11T23:12:31.630Z,118.17
2019-02-11T23:14:59.186Z,123.30
2019-02-11T23:17:27.108Z,130.77
2019-02-11T23:19:54.821Z,147.27
2019-02-11T23:22:22.727Z,145.27
2019-02-11T23:24:50.389Z,135.27
2019-02-11T23:27:18.017Z,114.90
2019-02-11T23:29:45.968Z,107.77
2019-02-11T23:32:13.783Z,110.20
2019-02-11T23:34:41.655Z,102.87
2019-02-11T23:37:09.423Z,95.47
2019-02-11T23:39:37.454Z,107.77
2019-02-11T23:42:05.109Z,114.90
2019-02-11T23:44:32.766Z,120.23
2019-02-11T23:47:00.427Z,110.30
2019-02-11T23:49:28.060Z,115.63
2019-02-11T23:51:55.738Z,120.53
2019-02-11T23:54:23.926Z,104.97
2019-02-11T23:56:51.593Z,123.83
2019-02-11T23:59:19.194Z,109.63
